Sunday, October 21, 2018, 1:48 PM EDT
Back to Local

KAVP, Wilkes-barre/scranton International

Location: Pittston, PA, United States Lat: 41.333
Local Time: 1:48 PM EDT (17:48 GMT) Lon: -75.733
Time Zone: US/Eastern Elev: 961 ft

Show me the last for .
Show Decoded

2018-10-21 12:54 METAR KAVP 211654Z 33014G22KT 10SM OVC038 03/M04 A3006 RMK AO2 SLP184 T00331044
                 =
2018-10-21 11:54 METAR KAVP 211554Z 30016G22KT 10SM OVC040 03/M04 A3005 RMK AO2 PK WND 35028/1502
                 SLP181 T00331039 =
2018-10-21 10:54 METAR KAVP 211454Z 33011G19KT 10SM OVC044 03/M04 A3004 RMK AO2 SLP177 60000
                 T00331039 51038 =
2018-10-21 09:54 METAR KAVP 211354Z 34014G27KT 10SM FEW029 OVC039 03/M02 A3002 RMK AO2 PK WND
                 33027/1347 SLP167 T00331017 =
2018-10-21 08:54 METAR KAVP 211254Z 32010KT 10SM BKN043 OVC050 03/00 A2998 RMK AO2 RAE31 SLP154
                 P0000 T00330000 =
2018-10-21 08:36 METAR KAVP 211236Z 32008KT 10SM FEW016 BKN030 OVC050 03/00 A2997 RMK AO2 RAE31
                 P0000 T00330000 =
2018-10-21 07:54 METAR KAVP 211154Z 35005KT 9SM -RA BKN019 BKN029 OVC049 03/01 A2993 RMK AO2
                 RAB08E26B46 SLP138 P0001 60001 70031 T00330011 10056 20033 51033 =
2018-10-21 07:50 METAR KAVP 211150Z 35007KT 9SM -RA SCT019 BKN029 OVC049 03/01 A2992 RMK AO2
                 RAB08E26B46 P0001 =
2018-10-21 07:42 METAR KAVP 211142Z 35006KT 10SM FEW015 BKN042 OVC049 03/01 A2992 RMK AO2
                 RAB08E26 P0001 T00330011 =
2018-10-21 07:11 METAR KAVP 211111Z 30011G20KT 7SM -RA FEW014 BKN021 OVC040 04/01 A2990 RMK AO2
                 RAB08 P0000 T00390011 =
2018-10-21 07:03 METAR KAVP 211103Z 34012G21KT 10SM SCT023 BKN032 OVC050 04/01 A2988 RMK AO2
                 T00390006 =
2018-10-21 06:54 METAR KAVP 211054Z 34011G17KT 10SM BKN024 OVC033 04/01 A2988 RMK AO2 PK WND
                 36029/0959 RAB0958E39 SLP121 P0000 T00390006 =
2018-10-21 06:04 METAR KAVP 211004Z 36014G29KT 7SM -RA BKN024 BKN029 OVC037 04/01 A2984 RMK AO2
                 PK WND 36029/0959 RAB0958 P0000 T00440011 =
2018-10-21 05:54 METAR KAVP 210954Z 36012G22KT 10SM SCT028 OVC036 06/01 A2983 RMK AO2 PRESRR
                 SLP102 T00560011 =
2018-10-21 05:32 METAR KAVP 210932Z 35015G21KT 10SM FEW018 SCT025 OVC038 06/02 A2980 RMK AO2
                 T00560017 =
2018-10-21 04:54 METAR KAVP 210854Z 34008KT 10SM SCT017 BKN027 OVC055 06/04 A2977 RMK AO2 SLP079
                 T00560039 53026 =
2018-10-21 04:04 METAR KAVP 210804Z 33009KT 10SM FEW012 SCT017 OVC080 06/04 A2973 RMK AO2
                 T00560039 =
2018-10-21 03:54 METAR KAVP 210754Z 33010KT 10SM SCT012 BKN017 OVC075 06/04 A2972 RMK AO2 SLP063
                 T00560039 =
2018-10-21 03:02 METAR KAVP 210702Z 29006KT 10SM BKN010 BKN025 OVC060 06/04 A2971 RMK AO2
                 T00560044 =
2018-10-21 02:54 METAR KAVP 210654Z 31006KT 10SM SCT011 BKN024 OVC060 06/04 A2971 RMK AO2 SLP061
                 T00560039 =
2018-10-21 02:35 METAR KAVP 210635Z 32006KT 10SM FEW008 BKN014 OVC020 06/04 A2971 RMK AO2
                 T00560044 =
2018-10-21 02:07 METAR KAVP 210607Z VRB03KT 10SM OVC015 06/04 A2970 RMK AO2 T00560044 =
2018-10-21 01:54 METAR KAVP 210554Z 00000KT 10SM BKN012 OVC018 06/04 A2969 RMK AO2 SLP052 60017
                 T00560039 10083 20056 53004 =
2018-10-21 01:24 METAR KAVP 210524Z 00000KT 10SM BKN014 OVC034 06/04 A2969 RMK AO2 T00560044 =
2018-10-21 00:54 METAR KAVP 210454Z 02007KT 10SM FEW016 BKN021 OVC036 06/04 A2967 RMK AO2 RAE15
                 SLP046 P0000 T00560039 401560056 =
2018-10-20 23:54 METAR KAVP 210354Z 01010KT 10SM -RA FEW008 BKN021 OVC032 06/05 A2966 RMK AO2
                 SLP043 P0005 T00610050 =
2018-10-20 23:42 METAR KAVP 210342Z 34005KT 7SM -RA FEW008 BKN023 OVC033 07/06 A2967 RMK AO2
                 P0005 T00670061 =
2018-10-20 22:54 METAR KAVP 210254Z 27004KT 5SM RA BR FEW008 BKN012 OVC033 07/06 A2968 RMK AO2
                 SLP049 P0005 60012 T00670061 53013 =
2018-10-20 22:41 METAR KAVP 210241Z 27006KT 7SM -RA SCT008 BKN012 OVC035 07/06 A2968 =
2018-10-20 22:13 METAR KAVP 210213Z 29003KT 8SM -RA FEW004 SCT017 OVC035 07/06 A2967 RMK AO2
                 P0002 T00720056 =
2018-10-20 21:54 METAR KAVP 210154Z 32008KT 4SM RA BR SCT008 BKN017 OVC036 08/08 A2965 RMK AO2
                 RAB0059 SLP040 P0007 T00830078 =
2018-10-20 21:51 METAR KAVP 210151Z 30004KT 6SM -RA BR FEW008 BKN017 OVC032 08/07 A2965 RMK AO2
                 RAB0059 P0007 =
2018-10-20 20:54 METAR KAVP 210054Z 00000KT 6SM BR SCT003 BKN032 OVC041 08/08 A2964 RMK AO2
                 RAE2356B32E53 SLP036 P0000 T00830078 =
2018-10-20 20:50 METAR KAVP 210050Z 00000KT 7SM -RA SCT003 BKN032 OVC041 08/08 A2964 RMK AO2
                 RAE2356B32 P0000 =
2018-10-20 19:54 METAR KAVP 202354Z 00000KT 10SM -RA SCT034 BKN041 OVC070 08/07 A2964 RMK AO2
                 SLP036 P0011 60013 T00780072 10156 20078 51010 =
2018-10-20 18:54 METAR KAVP 202254Z 09004KT 10SM -RA FEW030 BKN038 OVC047 08/07 A2964 RMK AO2
                 SLP036 P0002 T00830067 =
2018-10-20 18:05 METAR KAVP 202205Z 04008KT 8SM RA SCT024 BKN031 OVC038 09/06 A2963 RMK AO2 P0000
                 T00940061 =
2018-10-20 17:54 METAR KAVP 202154Z 02012G16KT 10SM -RA BKN024 BKN038 OVC046 10/06 A2963 RMK AO2
                 RAB48 SLP034 P0000 T01000056 =
2018-10-20 16:54 METAR KAVP 202054Z 25010G18KT 10SM FEW045 14/04 A2961 RMK AO2 SLP024 T01440044
                 56020 =
2018-10-20 15:54 METAR KAVP 201954Z 24013G20KT 10SM CLR 14/04 A2961 RMK AO2 SLP026 T01440044 =
2018-10-20 14:54 METAR KAVP 201854Z 25013G21KT 10SM CLR 16/04 A2964 RMK AO2 SLP034 T01560044 =
2018-10-20 13:54 METAR KAVP 201754Z 25013G21KT 10SM FEW065 14/07 A2967 RMK AO2 SLP044 T01440067
                 10150 20100 58019 =

Support USWX by starting your Amazon purchase here.